Time;durP1;ratioP1;P1;durP2;ratioP2;P2;SDS_P1;SDS_P2;PMS_P1;PMS_P2;Temp;Humidity;BMP_temperature;BMP_pressure;BME280_temperature;BME280_humidity;BME280_pressure;Samples;Min_cycle;Max_cycle;Signal;HPM_P1;HPM_P2
2022/11/27 00:00:03;;;;;;;37.23;13.57;;;;;;;;;;6128294;23;20262;-90
2022/11/27 00:03:19;;;;;;;35.00;14.20;;;;;;;;;;6143871;23;20172;-92
2022/11/27 00:06:26;;;;;;;41.73;14.63;;;;;;;;;;6124658;23;20181;-91
2022/11/27 00:09:32;;;;;;;29.67;13.43;;;;;;;;;;6141609;23;20173;-92
2022/11/27 00:12:38;;;;;;;36.23;14.47;;;;;;;;;;6140446;23;20169;-90
2022/11/27 00:15:44;;;;;;;33.17;14.40;;;;;;;;;;6143949;23;20153;-90
2022/11/27 00:18:54;;;;;;;37.07;14.33;;;;;;;;;;6143970;23;20173;-89
2022/11/27 00:22:03;;;;;;;38.70;14.77;;;;;;;;;;6142138;23;20165;-92
2022/11/27 00:25:09;;;;;;;50.93;17.13;;;;;;;;;;6126849;23;20165;-91
2022/11/27 00:28:16;;;;;;;48.90;17.50;;;;;;;;;;6142084;23;20194;-91
2022/11/27 00:31:26;;;;;;;50.97;17.60;;;;;;;;;;6143622;23;20262;-92
2022/11/27 00:34:31;;;;;;;56.67;18.67;;;;;;;;;;6143332;23;20222;-88
2022/11/27 00:37:37;;;;;;;45.63;17.37;;;;;;;;;;6144075;23;20169;-88
2022/11/27 00:40:42;;;;;;;47.83;18.20;;;;;;;;;;6144558;23;20180;-91
2022/11/27 00:43:49;;;;;;;49.00;20.17;;;;;;;;;;6142262;23;20193;-91
2022/11/27 00:47:08;;;;;;;51.00;17.73;;;;;;;;;;6143986;23;20165;-92
2022/11/27 00:50:13;;;;;;;53.63;18.67;;;;;;;;;;6144194;23;20161;-89
2022/11/27 00:53:18;;;;;;;45.70;16.37;;;;;;;;;;6140909;23;20498;-91
2022/11/27 00:56:27;;;;;;;51.07;17.80;;;;;;;;;;6139974;23;20213;-89
2022/11/27 00:59:40;;;;;;;48.67;16.67;;;;;;;;;;6138526;23;20169;-88
2022/11/27 01:02:45;;;;;;;40.80;15.53;;;;;;;;;;6139795;23;20274;-90
2022/11/27 01:05:51;;;;;;;50.00;16.53;;;;;;;;;;6140235;23;20189;-89
2022/11/27 01:08:59;;;;;;;49.10;18.63;;;;;;;;;;6141709;23;20176;-89
2022/11/27 01:12:06;;;;;;;40.93;16.27;;;;;;;;;;6142429;23;20173;-90
2022/11/27 01:15:14;;;;;;;40.83;15.47;;;;;;;;;;6140676;23;20164;-89
2022/11/27 01:18:19;;;;;;;44.00;16.83;;;;;;;;;;6141084;23;20153;-91
2022/11/27 01:21:25;;;;;;;43.47;16.53;;;;;;;;;;6140746;23;20317;-87
2022/11/27 01:24:30;;;;;;;43.13;15.83;;;;;;;;;;6140550;23;20233;-90
2022/11/27 01:27:35;;;;;;;38.00;15.60;;;;;;;;;;6141791;23;20193;-89
2022/11/27 01:30:43;;;;;;;47.57;16.63;;;;;;;;;;6140535;23;20396;-88
2022/11/27 01:33:48;;;;;;;39.97;15.73;;;;;;;;;;6143517;23;20197;-89
2022/11/27 01:36:53;;;;;;;49.23;17.17;;;;;;;;;;6141400;23;20166;-91
2022/11/27 01:39:59;;;;;;;42.67;16.33;;;;;;;;;;6139997;23;20248;-90
2022/11/27 01:43:03;;;;;;;44.03;15.67;;;;;;;;;;6141279;23;20173;-88
2022/11/27 01:46:32;;;;;;;42.03;15.23;;;;;;;;;;6141403;23;20169;-89
2022/11/27 01:49:40;;;;;;;43.80;16.03;;;;;;;;;;6141537;23;20580;-90
2022/11/27 01:52:49;;;;;;;39.10;15.30;;;;;;;;;;6143422;23;20165;-89
2022/11/27 01:55:56;;;;;;;41.93;15.50;;;;;;;;;;6142260;23;20290;-89
2022/11/27 01:59:03;;;;;;;44.67;16.13;;;;;;;;;;6143538;23;20222;-88
2022/11/27 02:02:08;;;;;;;47.27;17.57;;;;;;;;;;6141531;23;20169;-88
2022/11/27 02:05:18;;;;;;;43.37;16.00;;;;;;;;;;6121106;23;20235;-90
2022/11/27 02:08:24;;;;;;;43.57;15.13;;;;;;;;;;6138913;23;20194;-89
2022/11/27 02:11:31;;;;;;;43.37;15.30;;;;;;;;;;6139698;23;20202;-88
2022/11/27 02:14:40;;;;;;;38.63;15.13;;;;;;;;;;6139048;23;20169;-86
2022/11/27 02:17:48;;;;;;;40.63;15.30;;;;;;;;;;6137485;23;20290;-88
2022/11/27 02:20:56;;;;;;;40.73;15.53;;;;;;;;;;6137222;23;20217;-88
2022/11/27 02:24:10;;;;;;;48.13;15.33;;;;;;;;;;6138614;23;20169;-90
2022/11/27 02:27:33;;;;;;;40.53;15.37;;;;;;;;;;6137713;23;20188;-91
2022/11/27 02:30:42;;;;;;;37.40;15.40;;;;;;;;;;6138205;23;20177;-89
2022/11/27 02:33:51;;;;;;;39.27;15.73;;;;;;;;;;6136758;23;20177;-89
2022/11/27 02:37:00;;;;;;;36.90;14.47;;;;;;;;;;6137614;23;20172;-89
2022/11/27 02:40:10;;;;;;;36.80;14.27;;;;;;;;;;6138277;23;20293;-91
2022/11/27 02:43:18;;;;;;;38.97;14.87;;;;;;;;;;6137506;23;20178;-90
2022/11/27 02:46:25;;;;;;;41.20;13.87;;;;;;;;;;6137898;23;20153;-88
2022/11/27 02:49:32;;;;;;;35.33;14.17;;;;;;;;;;6137988;23;20157;-88
2022/11/27 02:52:37;;;;;;;42.13;14.53;;;;;;;;;;6139654;23;20176;-90
2022/11/27 02:55:43;;;;;;;38.50;14.57;;;;;;;;;;6139319;23;20182;-90
2022/11/27 02:58:49;;;;;;;37.37;13.80;;;;;;;;;;6138029;23;20221;-89
2022/11/27 03:01:58;;;;;;;38.47;14.33;;;;;;;;;;6135702;23;20208;-90
2022/11/27 03:05:05;;;;;;;42.80;15.23;;;;;;;;;;6135033;23;20157;-87
2022/11/27 03:08:12;;;;;;;37.13;14.63;;;;;;;;;;6136700;23;20173;-90
2022/11/27 03:11:18;;;;;;;40.97;14.40;;;;;;;;;;6137561;23;20189;-90
2022/11/27 03:14:23;;;;;;;36.33;14.03;;;;;;;;;;6135771;23;20260;-92
2022/11/27 03:17:37;;;;;;;36.93;13.53;;;;;;;;;;6135891;23;20189;-88
2022/11/27 03:20:43;;;;;;;40.10;14.53;;;;;;;;;;6135928;23;20261;-89
2022/11/27 03:23:49;;;;;;;39.63;14.67;;;;;;;;;;6134715;23;20624;-90
2022/11/27 03:26:54;;;;;;;35.03;14.23;;;;;;;;;;6119022;23;20189;-90
2022/11/27 03:30:02;;;;;;;41.80;15.53;;;;;;;;;;6120707;23;20633;-89
2022/11/27 03:33:08;;;;;;;44.27;14.93;;;;;;;;;;6137354;23;20169;-92
2022/11/27 03:36:14;;;;;;;38.67;13.43;;;;;;;;;;6136523;23;20212;-90
2022/11/27 03:39:20;;;;;;;37.23;14.03;;;;;;;;;;6138071;23;20194;-91
2022/11/27 03:42:27;;;;;;;36.57;13.87;;;;;;;;;;6138117;23;20180;-90
2022/11/27 03:45:38;;;;;;;37.00;13.70;;;;;;;;;;6120665;23;20181;-89
2022/11/27 03:48:49;;;;;;;36.53;14.03;;;;;;;;;;6139794;23;20166;-89
2022/11/27 03:51:59;;;;;;;41.67;15.00;;;;;;;;;;6120998;23;20599;-87
2022/11/27 03:55:08;;;;;;;41.67;14.37;;;;;;;;;;6137827;23;20169;-89
2022/11/27 03:58:16;;;;;;;34.20;13.13;;;;;;;;;;6138658;23;20166;-90
2022/11/27 04:01:24;;;;;;;31.97;13.90;;;;;;;;;;6137591;23;20200;-91
2022/11/27 04:04:31;;;;;;;38.67;14.07;;;;;;;;;;6138035;23;20250;-92
2022/11/27 04:07:36;;;;;;;36.53;14.17;;;;;;;;;;6138667;23;20168;-90
2022/11/27 04:10:41;;;;;;;35.53;13.57;;;;;;;;;;6138487;23;20180;-89
2022/11/27 04:13:46;;;;;;;35.37;13.30;;;;;;;;;;6121712;23;20210;-92
2022/11/27 04:16:51;;;;;;;37.63;14.50;;;;;;;;;;6122194;23;20169;-90
2022/11/27 04:19:58;;;;;;;38.87;14.33;;;;;;;;;;6138984;23;20173;-92
2022/11/27 04:23:03;;;;;;;42.13;14.70;;;;;;;;;;6137731;23;20157;-88
2022/11/27 04:26:07;;;;;;;38.30;14.70;;;;;;;;;;6138945;23;20157;-91
2022/11/27 04:29:12;;;;;;;35.83;14.67;;;;;;;;;;6138988;23;20416;-89
2022/11/27 04:32:18;;;;;;;38.00;14.57;;;;;;;;;;6139166;23;20169;-91
2022/11/27 04:35:25;;;;;;;34.37;14.57;;;;;;;;;;6137610;23;20208;-91
2022/11/27 04:38:30;;;;;;;36.23;14.37;;;;;;;;;;6136458;23;20588;-89
2022/11/27 04:41:35;;;;;;;32.63;13.63;;;;;;;;;;6137371;23;20233;-89
2022/11/27 04:44:40;;;;;;;35.23;14.57;;;;;;;;;;6138997;23;20169;-88
2022/11/27 04:47:46;;;;;;;34.93;14.40;;;;;;;;;;6137932;23;20169;-90
2022/11/27 04:50:54;;;;;;;35.53;14.17;;;;;;;;;;6138256;23;20203;-90
2022/11/27 04:53:59;;;;;;;32.60;13.30;;;;;;;;;;6136787;23;20173;-91
2022/11/27 04:57:05;;;;;;;32.43;13.57;;;;;;;;;;6138214;23;20168;-88
2022/11/27 05:00:11;;;;;;;29.17;12.57;;;;;;;;;;6138858;23;20173;-91
2022/11/27 05:03:20;;;;;;;28.53;12.03;;;;;;;;;;6138845;23;20173;-90
2022/11/27 05:06:27;;;;;;;29.07;12.33;;;;;;;;;;6138124;23;20184;-90
2022/11/27 05:09:32;;;;;;;25.47;12.00;;;;;;;;;;6137615;23;20223;-91
2022/11/27 05:12:37;;;;;;;23.37;10.87;;;;;;;;;;6135941;23;20257;-88
2022/11/27 05:15:43;;;;;;;20.27;9.77;;;;;;;;;;6136850;23;20169;-90
2022/11/27 05:18:48;;;;;;;18.53;9.40;;;;;;;;;;6137954;23;20213;-91
2022/11/27 05:21:55;;;;;;;17.70;8.80;;;;;;;;;;6138179;23;20236;-91
2022/11/27 05:25:00;;;;;;;20.03;9.77;;;;;;;;;;6137644;23;20193;-90
2022/11/27 05:28:05;;;;;;;18.67;9.10;;;;;;;;;;6120216;23;20225;-90
2022/11/27 05:31:11;;;;;;;15.97;8.47;;;;;;;;;;6138124;23;20160;-90
2022/11/27 05:34:16;;;;;;;20.17;8.87;;;;;;;;;;6136179;23;20161;-89
2022/11/27 05:37:23;;;;;;;20.63;9.93;;;;;;;;;;6120401;23;20213;-92
2022/11/27 05:40:28;;;;;;;20.97;9.40;;;;;;;;;;6120546;23;20165;-90
2022/11/27 05:43:33;;;;;;;20.90;9.37;;;;;;;;;;6135451;23;20229;-88
2022/11/27 05:46:38;;;;;;;19.23;9.23;;;;;;;;;;6136306;23;20165;-88
2022/11/27 05:49:43;;;;;;;19.47;9.20;;;;;;;;;;6136627;23;20212;-90
2022/11/27 05:52:49;;;;;;;18.33;8.93;;;;;;;;;;6136243;23;20558;-90
2022/11/27 05:55:54;;;;;;;20.80;10.27;;;;;;;;;;6121251;23;20169;-90
2022/11/27 05:59:00;;;;;;;24.13;9.30;;;;;;;;;;6137938;23;20173;-90
2022/11/27 06:02:05;;;;;;;18.53;9.83;;;;;;;;;;6135832;23;20197;-89
2022/11/27 06:05:10;;;;;;;23.00;9.23;;;;;;;;;;6136361;23;20153;-90
2022/11/27 06:08:16;;;;;;;23.47;9.80;;;;;;;;;;6119876;23;20169;-90
2022/11/27 06:11:22;;;;;;;21.77;9.53;;;;;;;;;;6136879;23;20173;-90
2022/11/27 06:14:28;;;;;;;21.40;9.80;;;;;;;;;;6134881;23;20273;-92
2022/11/27 06:17:33;;;;;;;22.73;10.43;;;;;;;;;;6136160;23;20177;-90
2022/11/27 06:20:38;;;;;;;29.17;12.23;;;;;;;;;;6118653;23;20169;-89
2022/11/27 06:23:46;;;;;;;28.83;12.50;;;;;;;;;;6136779;23;20190;-90
2022/11/27 06:26:51;;;;;;;23.23;11.33;;;;;;;;;;6136531;23;20648;-91
2022/11/27 06:29:56;;;;;;;27.03;11.70;;;;;;;;;;6136675;23;20165;-87
2022/11/27 06:33:01;;;;;;;26.00;11.73;;;;;;;;;;6136322;23;20168;-89
2022/11/27 06:36:06;;;;;;;25.50;11.23;;;;;;;;;;6133676;23;20550;-88
2022/11/27 06:39:13;;;;;;;23.60;10.00;;;;;;;;;;6135699;23;20164;-87
2022/11/27 06:42:18;;;;;;;22.97;10.20;;;;;;;;;;6137024;23;20197;-90
2022/11/27 06:45:33;;;;;;;23.07;10.30;;;;;;;;;;6135674;23;20247;-92
2022/11/27 06:48:38;;;;;;;26.87;10.57;;;;;;;;;;6136591;23;20173;-91
2022/11/27 06:51:47;;;;;;;28.67;11.17;;;;;;;;;;6135678;23;20249;-89
2022/11/27 06:54:53;;;;;;;24.50;10.20;;;;;;;;;;6136776;23;20174;-86
2022/11/27 06:57:59;;;;;;;21.97;9.83;;;;;;;;;;6136710;23;20166;-89
2022/11/27 07:01:05;;;;;;;27.73;10.63;;;;;;;;;;6136504;23;20170;-88
2022/11/27 07:04:11;;;;;;;26.20;10.23;;;;;;;;;;6138185;23;20172;-89
2022/11/27 07:07:16;;;;;;;22.60;9.27;;;;;;;;;;6138538;23;20165;-89
2022/11/27 07:10:23;;;;;;;21.20;8.47;;;;;;;;;;6137950;23;20165;-89
2022/11/27 07:13:29;;;;;;;19.93;9.27;;;;;;;;;;6121098;23;20211;-89
2022/11/27 07:16:36;;;;;;;23.53;9.73;;;;;;;;;;6138758;23;20189;-92
2022/11/27 07:19:41;;;;;;;25.17;9.83;;;;;;;;;;6137672;23;20197;-90
2022/11/27 07:22:46;;;;;;;26.63;10.23;;;;;;;;;;6139465;23;20196;-89
2022/11/27 07:25:53;;;;;;;27.20;9.43;;;;;;;;;;6138154;23;20213;-91
2022/11/27 07:28:58;;;;;;;27.37;11.07;;;;;;;;;;6138471;23;20161;-88
2022/11/27 07:32:03;;;;;;;25.67;9.93;;;;;;;;;;6120979;23;20169;-92
2022/11/27 07:35:08;;;;;;;22.67;9.60;;;;;;;;;;6138569;23;20161;-89
2022/11/27 07:38:14;;;;;;;26.40;11.00;;;;;;;;;;6138375;23;20185;-90
2022/11/27 07:41:20;;;;;;;28.33;10.70;;;;;;;;;;6135052;23;20245;-89
2022/11/27 07:44:25;;;;;;;29.67;10.77;;;;;;;;;;6137399;23;20157;-88
2022/11/27 07:47:31;;;;;;;31.97;11.50;;;;;;;;;;6139080;23;20173;-90
2022/11/27 07:50:37;;;;;;;27.60;11.77;;;;;;;;;;6138569;23;20165;-89
2022/11/27 07:53:42;;;;;;;26.23;11.30;;;;;;;;;;6138829;23;20172;-88
2022/11/27 07:56:49;;;;;;;29.50;11.43;;;;;;;;;;6122729;23;20185;-92
2022/11/27 07:59:55;;;;;;;27.97;10.53;;;;;;;;;;6139794;23;20253;-90
2022/11/27 08:03:00;;;;;;;26.57;10.27;;;;;;;;;;6137692;23;20216;-87
2022/11/27 08:06:05;;;;;;;26.30;10.50;;;;;;;;;;6122827;23;20223;-88
2022/11/27 08:09:10;;;;;;;25.53;9.97;;;;;;;;;;6138335;23;20256;-90
2022/11/27 08:12:18;;;;;;;23.87;9.97;;;;;;;;;;6138777;23;20226;-92
2022/11/27 08:15:23;;;;;;;25.50;10.13;;;;;;;;;;6137463;23;20233;-88
2022/11/27 08:18:28;;;;;;;27.80;9.50;;;;;;;;;;6138601;23;20168;-89
2022/11/27 08:21:33;;;;;;;20.90;8.73;;;;;;;;;;6137995;23;20568;-91
2022/11/27 08:24:38;;;;;;;19.93;8.43;;;;;;;;;;6139934;23;20177;-92
2022/11/27 08:27:47;;;;;;;23.90;9.70;;;;;;;;;;6122598;23;20231;-90
2022/11/27 08:30:56;;;;;;;21.73;9.20;;;;;;;;;;6138064;23;20621;-88
2022/11/27 08:34:02;;;;;;;20.33;9.30;;;;;;;;;;6138673;23;20164;-90
2022/11/27 08:37:07;;;;;;;21.10;8.63;;;;;;;;;;6140104;23;20169;-88
2022/11/27 08:40:12;;;;;;;19.50;8.43;;;;;;;;;;6139495;23;20193;-91
2022/11/27 08:43:19;;;;;;;17.87;7.47;;;;;;;;;;6140330;23;20266;-90
2022/11/27 08:46:25;;;;;;;21.10;8.30;;;;;;;;;;6139359;23;20160;-89
2022/11/27 08:49:30;;;;;;;20.93;7.47;;;;;;;;;;6140085;23;20215;-91
2022/11/27 08:52:35;;;;;;;18.53;7.50;;;;;;;;;;6142312;23;20173;-88
2022/11/27 08:55:40;;;;;;;76.70;28.17;;;;;;;;;;6141198;23;20235;-89
2022/11/27 08:58:47;;;;;;;16.57;7.90;;;;;;;;;;6140463;23;20166;-91
2022/11/27 09:01:52;;;;;;;16.13;6.93;;;;;;;;;;6140200;23;20222;-90
2022/11/27 09:04:57;;;;;;;14.20;6.63;;;;;;;;;;6139581;23;20173;-89
2022/11/27 09:08:04;;;;;;;14.63;6.97;;;;;;;;;;6139235;23;20169;-90
2022/11/27 09:11:10;;;;;;;13.30;6.63;;;;;;;;;;6138856;23;20173;-89
2022/11/27 09:14:17;;;;;;;14.23;6.73;;;;;;;;;;6140365;23;20177;-89
2022/11/27 09:17:24;;;;;;;14.73;7.53;;;;;;;;;;6139350;23;20186;-89
2022/11/27 09:20:29;;;;;;;15.57;7.87;;;;;;;;;;6139344;23;20173;-90
2022/11/27 09:23:34;;;;;;;13.43;6.80;;;;;;;;;;6137487;23;20194;-91
2022/11/27 09:26:39;;;;;;;12.57;5.80;;;;;;;;;;6140590;23;20273;-91
2022/11/27 09:29:46;;;;;;;13.27;6.50;;;;;;;;;;6138854;23;20309;-92
2022/11/27 09:32:53;;;;;;;14.93;6.53;;;;;;;;;;6140395;23;20172;-90
2022/11/27 09:35:58;;;;;;;13.13;6.60;;;;;;;;;;6138576;23;20173;-90
2022/11/27 09:39:04;;;;;;;14.40;7.00;;;;;;;;;;6141246;23;20153;-91
2022/11/27 09:42:15;;;;;;;16.33;7.27;;;;;;;;;;6139984;23;20197;-88
2022/11/27 09:45:23;;;;;;;15.20;6.80;;;;;;;;;;6141606;23;20161;-92
2022/11/27 09:48:32;;;;;;;13.47;6.40;;;;;;;;;;6143116;23;20166;-92
2022/11/27 09:51:52;;;;;;;14.67;6.60;;;;;;;;;;6143370;23;20196;-91
2022/11/27 09:55:01;;;;;;;16.40;6.50;;;;;;;;;;6143177;23;20186;-91
2022/11/27 09:58:12;;;;;;;15.90;6.67;;;;;;;;;;6144002;23;20558;-93
2022/11/27 10:01:20;;;;;;;14.70;6.70;;;;;;;;;;6145276;23;20199;-90
2022/11/27 10:04:27;;;;;;;12.53;6.07;;;;;;;;;;6143808;23;20173;-92
2022/11/27 10:07:36;;;;;;;14.00;6.47;;;;;;;;;;6146757;23;20209;-92
2022/11/27 10:10:44;;;;;;;12.10;6.23;;;;;;;;;;6142376;23;20223;-88
2022/11/27 10:13:58;;;;;;;14.30;6.73;;;;;;;;;;6143632;23;20174;-90
2022/11/27 10:17:08;;;;;;;13.40;6.70;;;;;;;;;;6145547;23;20189;-91
2022/11/27 10:20:19;;;;;;;13.87;6.17;;;;;;;;;;6145067;23;20173;-91
2022/11/27 10:23:28;;;;;;;12.57;6.03;;;;;;;;;;6143986;23;20220;-92
2022/11/27 10:26:37;;;;;;;12.93;5.23;;;;;;;;;;6141720;23;20197;-90
2022/11/27 10:29:44;;;;;;;11.43;5.63;;;;;;;;;;6143272;23;20617;-90
2022/11/27 10:32:53;;;;;;;10.60;5.27;;;;;;;;;;6142063;23;20169;-91
2022/11/27 10:35:59;;;;;;;11.80;5.73;;;;;;;;;;6140269;23;20193;-92
2022/11/27 10:39:05;;;;;;;13.00;6.37;;;;;;;;;;6143667;23;20174;-92
2022/11/27 10:42:16;;;;;;;12.30;5.77;;;;;;;;;;6146102;23;20168;-92
2022/11/27 10:45:26;;;;;;;13.70;5.83;;;;;;;;;;6146412;23;20189;-92
2022/11/27 10:48:36;;;;;;;13.33;5.77;;;;;;;;;;6147647;23;20154;-89
2022/11/27 15:24:34;;;;;;;71.67;24.93;;;;;;;;;;6191038;23;20216;-91
2022/11/27 15:27:46;;;;;;;63.93;21.03;;;;;;;;;;6184993;23;20219;-92
2022/11/27 15:30:51;;;;;;;55.73;19.80;;;;;;;;;;6185029;23;20168;-93
2022/11/27 15:33:58;;;;;;;78.97;23.17;;;;;;;;;;6185655;23;20218;-92
2022/11/27 15:37:05;;;;;;;62.87;21.80;;;;;;;;;;6187181;23;20176;-93
2022/11/27 15:40:25;;;;;;;72.50;23.67;;;;;;;;;;6187694;23;20172;-90
2022/11/27 15:43:36;;;;;;;83.03;28.03;;;;;;;;;;6186114;23;20203;-90
2022/11/27 15:46:54;;;;;;;89.70;28.07;;;;;;;;;;6187322;23;20607;-92
2022/11/27 15:49:59;;;;;;;79.43;27.00;;;;;;;;;;6187154;23;20156;-92
2022/11/27 16:01:54;;;;;;;73.93;24.93;;;;;;;;;;6154414;23;20268;-91
2022/11/27 16:05:00;;;;;;;73.37;23.40;;;;;;;;;;6186255;23;20623;-91
2022/11/27 16:08:06;;;;;;;64.47;22.43;;;;;;;;;;6186073;23;20348;-92
2022/11/27 16:11:18;;;;;;;67.57;22.27;;;;;;;;;;6185515;23;20245;-93
2022/11/27 16:14:23;;;;;;;64.07;22.90;;;;;;;;;;6186575;23;20191;-92
2022/11/27 16:17:32;;;;;;;68.70;22.27;;;;;;;;;;6187392;23;20168;-92
2022/11/27 16:20:38;;;;;;;67.40;23.13;;;;;;;;;;6185184;23;20184;-92
2022/11/27 16:23:43;;;;;;;64.13;22.87;;;;;;;;;;6184443;23;20192;-90
2022/11/27 16:26:48;;;;;;;79.90;25.83;;;;;;;;;;6201970;23;20172;-91
2022/11/27 16:29:53;;;;;;;79.33;26.37;;;;;;;;;;6184268;23;20160;-92
2022/11/27 16:33:03;;;;;;;87.77;28.63;;;;;;;;;;6184998;23;20172;-92
2022/11/27 16:36:10;;;;;;;72.73;26.50;;;;;;;;;;6182686;23;20172;-92
2022/11/27 16:39:17;;;;;;;76.50;25.37;;;;;;;;;;6185377;23;20175;-90
2022/11/27 16:42:22;;;;;;;66.80;22.33;;;;;;;;;;6183261;23;20167;-92
2022/11/27 16:49:20;;;;;;;66.40;20.13;;;;;;;;;;6184054;23;20163;-92
2022/11/27 16:52:27;;;;;;;58.40;20.67;;;;;;;;;;6184586;23;20655;-91
2022/11/27 16:55:32;;;;;;;61.83;20.37;;;;;;;;;;6183803;23;20171;-91
2022/11/27 16:58:38;;;;;;;55.77;20.27;;;;;;;;;;6183700;23;20179;-92
2022/11/27 17:01:45;;;;;;;61.63;20.97;;;;;;;;;;6184679;23;20642;-90
2022/11/27 17:04:53;;;;;;;59.70;20.90;;;;;;;;;;6185387;23;20196;-91
2022/11/27 17:07:58;;;;;;;62.10;20.60;;;;;;;;;;6185692;23;20176;-92
2022/11/27 17:11:07;;;;;;;61.77;19.90;;;;;;;;;;6186638;23;20172;-93
2022/11/27 17:14:14;;;;;;;68.43;22.03;;;;;;;;;;6186251;23;20159;-92
2022/11/27 17:17:21;;;;;;;64.93;21.10;;;;;;;;;;6187061;23;20175;-92
2022/11/27 17:20:28;;;;;;;65.23;22.00;;;;;;;;;;6184713;23;20212;-89
2022/11/27 17:23:35;;;;;;;70.03;22.03;;;;;;;;;;6182871;23;20196;-89
2022/11/27 17:26:42;;;;;;;69.13;22.20;;;;;;;;;;6184100;23;20188;-91
2022/11/27 17:29:48;;;;;;;73.47;23.00;;;;;;;;;;6186461;23;20167;-91
2022/11/27 17:32:56;;;;;;;66.83;21.47;;;;;;;;;;6185329;23;20201;-91
2022/11/27 17:36:03;;;;;;;71.10;22.13;;;;;;;;;;6185706;23;20160;-91
2022/11/27 17:39:09;;;;;;;98.27;31.83;;;;;;;;;;6185896;23;20156;-91
2022/11/27 17:42:14;;;;;;;115.90;37.10;;;;;;;;;;6186285;23;20244;-90
2022/11/27 17:45:20;;;;;;;79.00;27.77;;;;;;;;;;6184925;23;20183;-91
2022/11/27 17:48:25;;;;;;;91.30;32.63;;;;;;;;;;6201967;23;20160;-91
2022/11/27 17:51:33;;;;;;;96.93;40.33;;;;;;;;;;6186022;23;20216;-92
2022/11/27 17:54:38;;;;;;;72.83;25.33;;;;;;;;;;6187948;23;20207;-90
2022/11/27 17:57:43;;;;;;;86.97;30.60;;;;;;;;;;6188022;23;20231;-92
2022/11/27 18:00:49;;;;;;;102.73;35.80;;;;;;;;;;6186505;23;20307;-92
2022/11/27 18:03:55;;;;;;;65.63;22.63;;;;;;;;;;6186677;23;20199;-93
2022/11/27 18:07:03;;;;;;;75.40;24.43;;;;;;;;;;6186097;23;20176;-91
2022/11/27 18:10:11;;;;;;;89.20;29.50;;;;;;;;;;6187050;23;20172;-91
2022/11/27 18:13:16;;;;;;;78.90;24.50;;;;;;;;;;6186086;23;20273;-91
2022/11/27 18:16:23;;;;;;;73.00;24.57;;;;;;;;;;6185491;23;20456;-91
2022/11/27 18:19:30;;;;;;;67.50;21.33;;;;;;;;;;6183961;23;20151;-92
2022/11/27 18:22:38;;;;;;;71.27;20.90;;;;;;;;;;6185373;23;20156;-92
2022/11/27 18:25:42;;;;;;;83.63;23.83;;;;;;;;;;6184380;23;20171;-92
2022/11/27 18:28:50;;;;;;;62.77;21.83;;;;;;;;;;6185890;23;20168;-91
2022/11/27 18:38:44;;;;;;;61.27;21.90;;;;;;;;;;6183814;23;20188;-92
2022/11/27 18:41:59;;;;;;;66.17;23.27;;;;;;;;;;6183588;23;20199;-92
2022/11/27 18:45:09;;;;;;;69.97;21.50;;;;;;;;;;6182899;23;20709;-92
2022/11/27 18:48:16;;;;;;;64.20;22.53;;;;;;;;;;6183831;23;20205;-94
2022/11/27 18:51:23;;;;;;;65.23;20.63;;;;;;;;;;6186029;23;20239;-93
2022/11/27 18:57:51;;;;;;;64.23;21.50;;;;;;;;;;6186879;23;20167;-93
2022/11/27 19:00:57;;;;;;;61.97;19.87;;;;;;;;;;6187523;23;20168;-92
2022/11/27 19:04:04;;;;;;;49.43;18.03;;;;;;;;;;6205570;23;20191;-92
2022/11/27 19:07:10;;;;;;;43.80;16.50;;;;;;;;;;6187457;23;20156;-90
2022/11/27 19:10:17;;;;;;;46.27;16.47;;;;;;;;;;6188264;23;20163;-92
2022/11/27 19:13:23;;;;;;;40.67;14.60;;;;;;;;;;6188382;23;20172;-91
2022/11/27 19:16:30;;;;;;;36.83;14.20;;;;;;;;;;6187140;23;20219;-92
2022/11/27 19:19:36;;;;;;;33.03;13.00;;;;;;;;;;6187416;23;20231;-92
2022/11/27 19:22:42;;;;;;;28.37;12.23;;;;;;;;;;6188704;23;20183;-92
2022/11/27 19:25:52;;;;;;;30.03;12.53;;;;;;;;;;6186106;23;20264;-93
2022/11/27 19:28:59;;;;;;;35.50;14.37;;;;;;;;;;6188494;23;20172;-92
2022/11/27 19:32:04;;;;;;;52.83;15.70;;;;;;;;;;6188365;23;20236;-91
2022/11/27 19:35:24;;;;;;;40.50;15.10;;;;;;;;;;6188327;23;20197;-93
2022/11/27 19:38:31;;;;;;;37.20;13.43;;;;;;;;;;6189693;23;20171;-92
2022/11/27 19:41:41;;;;;;;35.53;13.67;;;;;;;;;;6187703;23;20165;-92
2022/11/27 19:44:46;;;;;;;35.07;13.13;;;;;;;;;;6187074;23;20195;-92
2022/11/27 19:47:53;;;;;;;31.27;13.70;;;;;;;;;;6187595;23;20171;-91
2022/11/27 19:51:01;;;;;;;33.73;13.50;;;;;;;;;;6185556;23;20167;-93
2022/11/27 19:54:08;;;;;;;36.10;13.57;;;;;;;;;;6186279;23;20171;-90
2022/11/27 19:57:15;;;;;;;38.60;14.17;;;;;;;;;;6188235;23;20168;-91
2022/11/27 20:00:22;;;;;;;34.07;12.83;;;;;;;;;;6186809;23;20168;-92
2022/11/27 20:03:27;;;;;;;30.27;12.10;;;;;;;;;;6185948;23;20168;-91
2022/11/27 20:06:33;;;;;;;33.43;13.37;;;;;;;;;;6186434;23;20184;-92
2022/11/27 20:09:38;;;;;;;31.23;12.37;;;;;;;;;;6187499;23;20167;-92
2022/11/27 20:12:47;;;;;;;33.93;13.53;;;;;;;;;;6185306;23;20195;-92
2022/11/27 20:15:52;;;;;;;35.00;14.57;;;;;;;;;;6203272;23;20261;-91
2022/11/27 20:19:05;;;;;;;38.40;12.97;;;;;;;;;;6188050;23;20181;-92
2022/11/27 20:22:12;;;;;;;32.47;12.97;;;;;;;;;;6184666;23;20163;-92
2022/11/27 20:25:19;;;;;;;34.77;14.50;;;;;;;;;;6186281;23;20180;-91
2022/11/27 20:28:26;;;;;;;36.57;14.93;;;;;;;;;;6184762;23;20167;-91
2022/11/27 20:31:33;;;;;;;32.93;13.57;;;;;;;;;;6185361;23;20191;-93
2022/11/27 20:34:38;;;;;;;35.00;13.13;;;;;;;;;;6187389;23;20220;-92
2022/11/27 20:37:44;;;;;;;30.43;12.57;;;;;;;;;;6184124;23;20171;-91
2022/11/27 20:40:49;;;;;;;31.10;11.90;;;;;;;;;;6184178;23;20172;-90
2022/11/27 20:43:57;;;;;;;32.13;13.07;;;;;;;;;;6182977;23;20192;-91
2022/11/27 20:47:04;;;;;;;29.90;12.80;;;;;;;;;;6184770;23;20167;-92
2022/11/27 20:50:16;;;;;;;29.43;12.47;;;;;;;;;;6186212;23;20168;-91
2022/11/27 20:53:22;;;;;;;33.90;14.37;;;;;;;;;;6184973;23;20183;-94
2022/11/27 20:56:28;;;;;;;35.97;12.97;;;;;;;;;;6183814;23;20172;-92
2022/11/27 20:59:36;;;;;;;35.17;13.80;;;;;;;;;;6183593;23;20220;-92
2022/11/27 21:02:42;;;;;;;30.30;13.03;;;;;;;;;;6183759;23;20194;-91
2022/11/27 21:05:48;;;;;;;32.90;13.47;;;;;;;;;;6183163;23;20234;-90
2022/11/27 21:08:54;;;;;;;30.13;12.53;;;;;;;;;;6184801;23;20239;-93
2022/11/27 21:12:05;;;;;;;32.07;12.50;;;;;;;;;;6186921;23;20175;-92
